Time;durP1;ratioP1;P1;durP2;ratioP2;P2;SDS_P1;SDS_P2;PMS_P1;PMS_P2;Temp;Humidity;BMP_temperature;BMP_pressure;BME280_temperature;BME280_humidity;BME280_pressure;Samples;Min_cycle;Max_cycle;Signal;HPM_P1;HPM_P2
2021/11/25 00:00:11;;;;;;;54.75;34.05;;;2.80;99.90;;;;;;2104791;28;20016;-72
2021/11/25 00:01:15;;;;;;;57.22;35.05;;;2.80;99.90;;;;;;2104500;28;20020;-72
2021/11/25 00:02:16;;;;;;;54.55;34.08;;;2.80;99.90;;;;;;2105455;28;20027;-74
2021/11/25 00:03:17;;;;;;;55.50;34.58;;;2.80;99.90;;;;;;2097109;28;20044;-74
2021/11/25 00:04:18;;;;;;;54.83;34.40;;;2.70;99.90;;;;;;2096861;28;20029;-73
2021/11/25 00:05:19;;;;;;;58.10;36.40;;;2.70;99.90;;;;;;2104749;28;20035;-74
2021/11/25 00:06:20;;;;;;;61.33;37.35;;;2.80;99.90;;;;;;2104103;28;20446;-72
2021/11/25 00:07:21;;;;;;;58.30;36.95;;;2.80;99.90;;;;;;2092863;28;20044;-72
2021/11/25 00:08:21;;;;;;;58.90;36.00;;;2.70;99.90;;;;;;2088679;28;20021;-72
2021/11/25 00:09:22;;;;;;;59.58;36.40;;;2.70;99.90;;;;;;2102136;28;20035;-74
2021/11/25 00:10:23;;;;;;;57.95;35.95;;;2.70;99.90;;;;;;2105567;28;20046;-74
2021/11/25 00:11:25;;;;;;;57.28;35.40;;;2.70;99.90;;;;;;2105255;28;20681;-73
2021/11/25 00:12:26;;;;;;;57.55;34.90;;;2.70;99.90;;;;;;2106078;28;20020;-73
2021/11/25 00:13:26;;;;;;;56.67;34.63;;;2.70;99.90;;;;;;2106202;28;20032;-73
2021/11/25 00:14:27;;;;;;;54.70;34.88;;;2.70;99.90;;;;;;2106336;28;20035;-73
2021/11/25 00:15:28;;;;;;;55.67;34.92;;;2.70;99.90;;;;;;2093905;28;20219;-73
2021/11/25 00:16:29;;;;;;;57.30;35.47;;;2.70;99.90;;;;;;2094252;28;20021;-73
2021/11/25 00:17:30;;;;;;;57.13;35.53;;;2.70;99.90;;;;;;2098845;28;20035;-73
2021/11/25 00:18:31;;;;;;;58.95;36.80;;;2.70;99.90;;;;;;2086455;28;20024;-73
2021/11/25 00:19:32;;;;;;;58.65;36.60;;;2.70;99.90;;;;;;2097027;28;20563;-74
2021/11/25 00:20:33;;;;;;;56.90;35.17;;;2.70;99.90;;;;;;2104698;28;20036;-75
2021/11/25 00:21:34;;;;;;;54.13;34.42;;;2.70;99.90;;;;;;2104454;28;20032;-74
2021/11/25 00:22:36;;;;;;;57.90;35.25;;;2.70;99.90;;;;;;2105777;28;20022;-74
2021/11/25 00:23:41;;;;;;;58.95;36.25;;;2.60;99.90;;;;;;2105627;28;20030;-73
2021/11/25 00:24:42;;;;;;;55.33;35.03;;;2.60;99.90;;;;;;2105695;28;20043;-75
2021/11/25 00:25:42;;;;;;;55.17;35.10;;;2.60;99.90;;;;;;2106104;28;20032;-73
2021/11/25 00:26:43;;;;;;;54.25;33.67;;;2.60;99.90;;;;;;2105111;28;20032;-74
2021/11/25 00:27:44;;;;;;;57.10;35.75;;;2.60;99.90;;;;;;2090230;28;20028;-72
2021/11/25 00:28:45;;;;;;;60.58;37.22;;;2.60;99.90;;;;;;2106220;28;20070;-71
2021/11/25 00:29:46;;;;;;;57.28;35.22;;;2.60;99.90;;;;;;2089738;28;20492;-71
2021/11/25 00:30:47;;;;;;;58.40;35.25;;;2.60;99.90;;;;;;2090107;28;20048;-74
2021/11/25 00:31:48;;;;;;;57.97;34.53;;;2.60;99.90;;;;;;2110372;28;20016;-72
2021/11/25 00:32:49;;;;;;;55.80;34.80;;;2.60;99.90;;;;;;2091129;28;20132;-71
2021/11/25 00:33:49;;;;;;;57.35;35.10;;;2.60;99.90;;;;;;2089891;28;20040;-71
2021/11/25 00:34:50;;;;;;;63.67;37.80;;;2.60;99.90;;;;;;2107038;28;20114;-72
2021/11/25 00:35:51;;;;;;;59.53;36.50;;;2.60;99.90;;;;;;2097484;28;20131;-71
2021/11/25 00:36:51;;;;;;;62.42;37.58;;;2.60;99.90;;;;;;2097779;28;20029;-71
2021/11/25 00:37:52;;;;;;;66.30;37.13;;;2.60;99.90;;;;;;2106670;28;20475;-72
2021/11/25 00:38:53;;;;;;;62.38;37.38;;;2.70;99.90;;;;;;2106705;28;20068;-71
2021/11/25 00:39:53;;;;;;;64.18;37.38;;;2.70;99.90;;;;;;2106735;28;20032;-74
2021/11/25 00:40:54;;;;;;;65.38;37.30;;;2.60;99.90;;;;;;2097561;28;20038;-71
2021/11/25 01:16:01;;;;;;;60.30;32.67;;;1.80;99.90;;;;;;2049594;28;20039;-64
2021/11/25 01:17:03;;;;;;;58.08;32.35;;;1.80;99.90;;;;;;2057021;28;20043;-65
2021/11/25 01:18:10;;;;;;;61.95;34.15;;;1.70;99.90;;;;;;2057122;28;20078;-64
2021/11/25 01:19:11;;;;;;;59.53;33.70;;;1.70;99.90;;;;;;2049484;28;20118;-64
2021/11/25 01:20:16;;;;;;;61.00;34.95;;;1.80;99.90;;;;;;2049238;28;20043;-67
2021/11/25 01:21:18;;;;;;;59.65;34.40;;;1.80;99.90;;;;;;2049059;28;20049;-66
2021/11/25 01:22:19;;;;;;;60.92;35.33;;;1.70;99.90;;;;;;2048826;28;20122;-66
2021/11/25 01:23:26;;;;;;;61.53;35.08;;;1.70;99.90;;;;;;2040942;29;20027;-66
2021/11/25 01:24:27;;;;;;;64.68;35.72;;;1.70;99.90;;;;;;2041719;29;20394;-66
2021/11/25 01:25:28;;;;;;;61.42;35.30;;;1.70;99.90;;;;;;2049139;28;20106;-65
2021/11/25 01:26:28;;;;;;;61.92;35.40;;;1.70;99.90;;;;;;2057084;28;20035;-65
2021/11/25 01:27:29;;;;;;;60.90;35.60;;;1.70;99.90;;;;;;2049308;28;20039;-66
2021/11/25 01:28:31;;;;;;;63.63;35.85;;;1.70;99.90;;;;;;2049384;28;20024;-67
2021/11/25 01:29:31;;;;;;;65.60;36.63;;;1.70;99.90;;;;;;2049477;29;20039;-65
2021/11/25 01:30:32;;;;;;;64.82;36.53;;;1.70;99.90;;;;;;2048900;29;20110;-66
2021/11/25 01:31:34;;;;;;;64.70;35.72;;;1.70;99.90;;;;;;2048532;28;20066;-67
2021/11/25 01:32:36;;;;;;;62.15;35.35;;;1.60;99.90;;;;;;2056969;28;20037;-70
2021/11/25 01:33:36;;;;;;;62.28;35.40;;;1.60;99.90;;;;;;2056801;28;20017;-66
2021/11/25 01:34:37;;;;;;;59.17;34.50;;;1.60;99.90;;;;;;2049308;28;20026;-65
2021/11/25 01:35:38;;;;;;;61.38;34.88;;;1.60;99.90;;;;;;2049302;28;20649;-66
2021/11/25 01:36:39;;;;;;;59.10;33.88;;;1.60;99.90;;;;;;2048664;29;20030;-66
2021/11/25 01:37:40;;;;;;;57.33;33.20;;;1.60;99.90;;;;;;2040096;29;20035;-66
2021/11/25 01:38:41;;;;;;;58.53;33.72;;;1.60;99.90;;;;;;2048604;29;20066;-65
2021/11/25 01:39:41;;;;;;;58.25;34.38;;;1.60;99.90;;;;;;2049170;28;20546;-66
2021/11/25 01:40:45;;;;;;;58.28;33.30;;;1.50;99.90;;;;;;2048858;28;20019;-66
2021/11/25 01:41:47;;;;;;;57.53;33.33;;;1.50;99.90;;;;;;2048486;28;20082;-66
2021/11/25 01:42:48;;;;;;;57.80;33.72;;;1.50;99.90;;;;;;2049097;28;20494;-66
2021/11/25 01:43:49;;;;;;;60.38;34.33;;;1.50;99.90;;;;;;2049093;28;20026;-66
2021/11/25 01:44:50;;;;;;;58.20;33.65;;;1.50;99.90;;;;;;2049169;28;20027;-66
2021/11/25 01:45:55;;;;;;;59.40;33.40;;;1.50;99.90;;;;;;2049069;29;20714;-66
2021/11/25 01:46:56;;;;;;;60.90;33.40;;;1.50;99.90;;;;;;2048467;28;20114;-66
2021/11/25 01:47:57;;;;;;;60.35;34.60;;;1.50;99.90;;;;;;2048557;29;20031;-66
2021/11/25 01:48:57;;;;;;;59.72;34.00;;;1.40;99.90;;;;;;2056436;28;20074;-66
2021/11/25 01:49:58;;;;;;;62.65;35.60;;;1.40;99.90;;;;;;2056427;28;20150;-65
2021/11/25 01:50:59;;;;;;;61.45;35.15;;;1.40;99.90;;;;;;2048766;28;20038;-65
2021/11/25 01:52:00;;;;;;;61.55;36.28;;;1.40;99.90;;;;;;2056009;28;20034;-65
2021/11/25 01:53:01;;;;;;;61.30;34.50;;;1.40;99.90;;;;;;2056442;28;20027;-65
2021/11/25 01:54:02;;;;;;;63.28;35.85;;;1.40;99.90;;;;;;2049244;28;20486;-67
2021/11/25 01:55:04;;;;;;;60.25;34.45;;;1.40;99.90;;;;;;2049389;29;20780;-65
2021/11/25 01:56:06;;;;;;;58.80;33.88;;;1.40;99.90;;;;;;2049304;28;20091;-65
2021/11/25 01:57:08;;;;;;;61.28;34.92;;;1.30;99.90;;;;;;2049144;28;20023;-65
2021/11/25 01:58:09;;;;;;;62.13;35.05;;;1.40;99.90;;;;;;2049113;28;20051;-65
2021/11/25 01:59:09;;;;;;;62.78;34.92;;;1.30;99.90;;;;;;2049269;28;20046;-65
2021/11/25 02:00:16;;;;;;;66.18;35.70;;;1.30;99.90;;;;;;2049183;28;20090;-65
2021/11/25 02:01:21;;;;;;;65.13;36.08;;;1.30;99.90;;;;;;2056006;28;20027;-66
2021/11/25 02:02:22;;;;;;;64.93;35.85;;;1.30;99.90;;;;;;2056268;28;20027;-65
2021/11/25 02:03:26;;;;;;;61.50;34.45;;;1.30;99.90;;;;;;2049420;28;20027;-65
2021/11/25 02:04:27;;;;;;;61.90;35.60;;;1.30;99.90;;;;;;2049559;28;20046;-65
2021/11/25 02:05:28;;;;;;;60.15;35.15;;;1.20;99.90;;;;;;2049382;28;20027;-66
2021/11/25 02:06:29;;;;;;;63.70;35.50;;;1.30;99.90;;;;;;2049070;28;20110;-65
2021/11/25 02:07:30;;;;;;;68.32;38.10;;;1.30;99.90;;;;;;2049266;28;20046;-66
2021/11/25 02:08:31;;;;;;;64.55;36.85;;;1.30;99.90;;;;;;2056519;28;20624;-66
2021/11/25 02:09:32;;;;;;;65.18;36.80;;;1.20;99.90;;;;;;2056437;28;20034;-66
2021/11/25 02:10:35;;;;;;;63.30;36.53;;;1.30;99.90;;;;;;2049049;28;20394;-65
2021/11/25 02:11:36;;;;;;;66.07;37.20;;;1.30;99.90;;;;;;2048788;28;20022;-65
2021/11/25 02:12:37;;;;;;;64.53;37.45;;;1.30;99.90;;;;;;2049403;28;20031;-66
2021/11/25 02:13:38;;;;;;;66.28;36.92;;;1.30;99.90;;;;;;2048867;28;20055;-66
2021/11/25 02:14:39;;;;;;;65.55;38.33;;;1.20;99.90;;;;;;2049106;28;20518;-66
2021/11/25 02:15:40;;;;;;;71.60;38.53;;;1.20;99.90;;;;;;2049006;28;20108;-66
2021/11/25 02:16:41;;;;;;;68.72;38.30;;;1.20;99.90;;;;;;2056224;28;20050;-66
2021/11/25 02:17:43;;;;;;;69.85;38.92;;;1.20;99.90;;;;;;2056399;28;20086;-66
2021/11/25 02:18:44;;;;;;;68.20;39.20;;;1.20;99.90;;;;;;2048960;28;20400;-66
2021/11/25 02:19:48;;;;;;;69.38;39.20;;;1.20;99.90;;;;;;2048414;29;20031;-66
2021/11/25 02:20:52;;;;;;;71.57;38.78;;;1.20;99.90;;;;;;2047864;28;20019;-66
2021/11/25 02:21:53;;;;;;;68.00;37.85;;;1.20;99.90;;;;;;2047857;28;20095;-66
2021/11/25 02:22:53;;;;;;;67.90;38.30;;;1.20;99.90;;;;;;2048370;29;20421;-66
2021/11/25 02:23:54;;;;;;;74.85;40.55;;;1.10;99.90;;;;;;2048231;29;20530;-66
2021/11/25 02:24:55;;;;;;;70.20;39.00;;;1.10;99.90;;;;;;2048455;29;20039;-67
2021/11/25 02:25:57;;;;;;;68.80;39.58;;;1.10;99.90;;;;;;2056207;28;20042;-66
2021/11/25 02:26:57;;;;;;;68.63;38.22;;;1.10;99.90;;;;;;2056309;28;20027;-66
2021/11/25 02:27:58;;;;;;;67.45;38.20;;;1.10;99.90;;;;;;2049053;28;20479;-66
2021/11/25 02:28:59;;;;;;;66.95;37.72;;;1.10;99.90;;;;;;2056243;28;20041;-66
2021/11/25 02:29:59;;;;;;;64.63;36.45;;;1.00;99.90;;;;;;2056256;28;20019;-66
2021/11/25 02:31:01;;;;;;;67.07;37.92;;;1.00;99.90;;;;;;2048492;28;20046;-66
2021/11/25 02:32:02;;;;;;;66.03;37.55;;;1.00;99.90;;;;;;2055700;28;20037;-66
2021/11/25 02:33:03;;;;;;;67.53;37.67;;;1.00;99.90;;;;;;2056217;28;20101;-66
2021/11/25 02:34:03;;;;;;;68.50;38.42;;;1.00;99.90;;;;;;2056192;28;20045;-66
2021/11/25 02:35:09;;;;;;;66.47;37.05;;;1.00;99.90;;;;;;2047971;29;20114;-66
2021/11/25 02:36:11;;;;;;;69.90;38.47;;;1.00;99.90;;;;;;2048329;29;20510;-67
2021/11/25 02:37:11;;;;;;;70.63;39.85;;;1.00;99.90;;;;;;2048727;28;20408;-66
2021/11/25 02:38:14;;;;;;;68.05;38.75;;;1.00;99.90;;;;;;2048709;28;20118;-67
2021/11/25 02:39:15;;;;;;;71.68;38.78;;;1.00;99.90;;;;;;2048636;28;20031;-67
2021/11/25 02:40:29;;;;;;;71.18;38.88;;;1.00;99.90;;;;;;2048362;28;20166;-67
2021/11/25 02:41:30;;;;;;;70.18;38.92;;;1.00;99.90;;;;;;2048167;28;20031;-66
2021/11/25 02:42:30;;;;;;;67.22;37.72;;;1.00;99.90;;;;;;2048788;28;20030;-67
2021/11/25 02:43:34;;;;;;;66.97;38.58;;;1.00;99.90;;;;;;2048637;28;20047;-66
2021/11/25 02:44:34;;;;;;;67.63;38.13;;;1.00;99.90;;;;;;2048958;28;20067;-66
2021/11/25 02:45:56;;;;;;;69.00;38.08;;;1.00;99.90;;;;;;2048587;28;20023;-66
2021/11/25 02:47:00;;;;;;;68.47;38.53;;;0.90;99.90;;;;;;2056130;28;20034;-66
2021/11/25 02:48:00;;;;;;;71.15;39.83;;;0.90;99.90;;;;;;2055853;28;20039;-66
2021/11/25 02:49:02;;;;;;;72.63;40.80;;;0.90;99.90;;;;;;2055656;28;20109;-67
2021/11/25 02:50:03;;;;;;;73.15;40.33;;;0.90;99.90;;;;;;2055459;28;20061;-66
2021/11/25 02:51:05;;;;;;;75.18;41.63;;;0.90;99.90;;;;;;2048218;28;20046;-67
2021/11/25 02:52:06;;;;;;;73.00;40.47;;;0.80;99.90;;;;;;2048663;28;20110;-67
2021/11/25 02:53:10;;;;;;;69.70;39.70;;;0.80;99.90;;;;;;2048576;28;20034;-67
2021/11/25 02:54:11;;;;;;;66.53;37.80;;;0.80;99.90;;;;;;2048662;28;20019;-67
2021/11/25 02:55:14;;;;;;;69.28;39.08;;;0.70;99.90;;;;;;2048109;28;20118;-67
2021/11/25 02:56:17;;;;;;;70.53;39.03;;;0.70;99.90;;;;;;2048015;28;20035;-67
2021/11/25 02:57:17;;;;;;;66.32;37.40;;;0.70;99.90;;;;;;2048039;29;20023;-67
2021/11/25 02:58:18;;;;;;;70.05;37.75;;;0.70;99.90;;;;;;2048595;28;20027;-67
2021/11/25 02:59:19;;;;;;;67.50;36.97;;;0.70;99.90;;;;;;2048398;28;20469;-67
2021/11/25 03:00:19;;;;;;;68.47;38.40;;;0.70;99.90;;;;;;2048174;28;20517;-67
2021/11/25 03:01:40;;;;;;;69.18;38.45;;;0.60;99.90;;;;;;2048103;28;20042;-66
2021/11/25 03:02:41;;;;;;;71.20;38.38;;;0.60;99.90;;;;;;2048284;28;20035;-67
2021/11/25 03:03:42;;;;;;;69.75;37.88;;;0.60;99.90;;;;;;2048600;28;20023;-67
2021/11/25 03:04:43;;;;;;;70.40;38.13;;;0.60;99.90;;;;;;2048603;28;20068;-66
2021/11/25 03:05:50;;;;;;;68.95;37.95;;;0.60;99.90;;;;;;2047717;29;20043;-67
2021/11/25 03:06:51;;;;;;;72.03;38.67;;;0.60;99.90;;;;;;2047808;28;20079;-67
2021/11/25 03:07:52;;;;;;;70.07;37.70;;;0.60;99.90;;;;;;2047832;29;20038;-65
2021/11/25 03:08:53;;;;;;;72.25;39.28;;;0.60;99.90;;;;;;2048466;28;20464;-65
2021/11/25 03:09:54;;;;;;;71.57;39.20;;;0.60;99.90;;;;;;2047839;29;20027;-66
2021/11/25 03:11:22;;;;;;;68.72;37.72;;;0.50;99.90;;;;;;2047255;29;20062;-66
2021/11/25 03:12:23;;;;;;;70.10;37.03;;;0.50;99.90;;;;;;2045518;28;20628;-66
2021/11/25 03:13:25;;;;;;;71.82;38.42;;;0.50;99.90;;;;;;2047783;29;20102;-66
2021/11/25 03:14:26;;;;;;;70.60;38.15;;;0.50;99.90;;;;;;2055763;28;20098;-66
2021/11/25 03:15:31;;;;;;;72.65;39.22;;;0.50;99.90;;;;;;2055712;28;20461;-66
2021/11/25 03:16:33;;;;;;;71.93;38.05;;;0.50;99.90;;;;;;2047973;29;20050;-66
2021/11/25 03:17:37;;;;;;;71.00;38.95;;;0.50;99.90;;;;;;2048014;29;20043;-66
2021/11/25 03:18:40;;;;;;;67.70;37.05;;;0.50;99.90;;;;;;2048827;28;20031;-66
2021/11/25 03:19:40;;;;;;;74.18;39.58;;;0.50;99.90;;;;;;2048555;28;20027;-66
2021/11/25 03:20:44;;;;;;;72.22;38.53;;;0.50;99.90;;;;;;2048167;28;20102;-66
2021/11/25 03:21:45;;;;;;;69.80;37.72;;;0.50;99.90;;;;;;2048108;29;20023;-66
2021/11/25 03:22:46;;;;;;;68.35;37.55;;;0.50;99.90;;;;;;2048401;28;20066;-66
2021/11/25 03:23:48;;;;;;;69.00;37.38;;;0.50;99.90;;;;;;2048385;28;20023;-66
2021/11/25 03:24:49;;;;;;;70.15;38.28;;;0.50;99.90;;;;;;2048354;28;20042;-66
2021/11/25 03:25:51;;;;;;;69.30;38.85;;;0.50;99.90;;;;;;2048425;28;20546;-66
2021/11/25 03:26:51;;;;;;;71.90;38.47;;;0.50;99.90;;;;;;2048556;28;20031;-67
2021/11/25 03:27:52;;;;;;;72.97;38.88;;;0.40;99.90;;;;;;2048296;28;20027;-66
2021/11/25 03:28:55;;;;;;;72.18;38.75;;;0.50;99.90;;;;;;2048446;28;20481;-66
2021/11/25 03:29:56;;;;;;;72.80;37.70;;;0.40;99.90;;;;;;2048395;28;20684;-66
2021/11/25 03:30:57;;;;;;;72.85;38.47;;;0.40;99.90;;;;;;2048029;28;20038;-67
2021/11/25 03:31:57;;;;;;;69.22;37.40;;;0.40;99.90;;;;;;2047815;28;20054;-66
2021/11/25 03:32:58;;;;;;;73.15;39.08;;;0.30;99.90;;;;;;2048388;28;20042;-66
2021/11/25 03:34:01;;;;;;;69.95;36.97;;;0.30;99.90;;;;;;2047702;29;20027;-66
2021/11/25 03:35:02;;;;;;;71.55;37.72;;;0.30;99.90;;;;;;2047825;29;20155;-66
2021/11/25 03:36:05;;;;;;;69.80;37.90;;;0.30;99.90;;;;;;2048679;29;20031;-66
2021/11/25 03:37:06;;;;;;;71.38;38.03;;;0.30;99.90;;;;;;2055781;28;20042;-67
2021/11/25 03:38:07;;;;;;;71.28;37.72;;;0.30;99.90;;;;;;2055768;28;20035;-65
2021/11/25 03:39:08;;;;;;;72.45;38.05;;;0.30;99.90;;;;;;2048382;28;20033;-66
2021/11/25 03:40:10;;;;;;;72.88;38.58;;;0.30;99.90;;;;;;2047545;29;20137;-67
2021/11/25 03:41:12;;;;;;;76.60;39.17;;;0.20;99.90;;;;;;2047496;28;20039;-67
2021/11/25 03:42:13;;;;;;;70.60;37.97;;;0.20;99.90;;;;;;2055643;28;20043;-67
2021/11/25 03:43:14;;;;;;;72.88;38.63;;;0.20;99.90;;;;;;2055810;28;20039;-67
2021/11/25 03:44:15;;;;;;;70.57;37.42;;;0.20;99.90;;;;;;2048304;29;20054;-67
2021/11/25 03:45:16;;;;;;;70.15;37.42;;;0.20;99.90;;;;;;2048122;28;20047;-67
2021/11/25 03:46:17;;;;;;;71.90;38.90;;;0.20;99.90;;;;;;2048257;28;20489;-68
2021/11/25 03:47:18;;;;;;;71.10;38.40;;;0.20;99.90;;;;;;2048285;28;20083;-67
2021/11/25 03:48:23;;;;;;;72.43;38.65;;;0.20;99.90;;;;;;2048350;28;20040;-67
2021/11/25 03:49:24;;;;;;;73.60;38.28;;;0.20;99.90;;;;;;2048196;28;20066;-67
2021/11/25 03:50:24;;;;;;;72.85;38.10;;;0.20;99.90;;;;;;2048088;28;20035;-67
2021/11/25 03:51:25;;;;;;;69.30;37.42;;;0.20;99.90;;;;;;2047957;28;20556;-66
2021/11/25 03:52:26;;;;;;;74.25;38.95;;;0.20;99.90;;;;;;2055468;28;20042;-66
2021/11/25 03:53:27;;;;;;;74.10;39.65;;;0.20;99.90;;;;;;2055623;28;20053;-66
2021/11/25 03:54:28;;;;;;;75.65;39.90;;;0.20;99.90;;;;;;2048035;28;20102;-66
2021/11/25 03:55:29;;;;;;;73.00;38.10;;;0.20;99.90;;;;;;2055612;28;20058;-66
2021/11/25 03:56:30;;;;;;;72.32;37.78;;;0.30;99.90;;;;;;2055711;28;20030;-66
2021/11/25 03:57:31;;;;;;;71.85;38.95;;;0.30;99.90;;;;;;2048363;29;20063;-67
2021/11/25 03:58:31;;;;;;;76.53;40.53;;;0.30;99.90;;;;;;2048193;28;20031;-66
2021/11/25 03:59:32;;;;;;;75.68;40.05;;;0.30;99.90;;;;;;2048167;28;20822;-67
2021/11/25 04:00:33;;;;;;;72.25;38.38;;;0.30;99.90;;;;;;2047748;28;20098;-67
2021/11/25 04:01:34;;;;;;;72.75;39.45;;;0.30;99.90;;;;;;2047757;28;20027;-67
2021/11/25 04:02:35;;;;;;;74.93;39.30;;;0.40;99.90;;;;;;2055585;28;20417;-67
2021/11/25 04:03:36;;;;;;;77.00;40.30;;;0.40;99.90;;;;;;2055594;28;20061;-66
2021/11/25 04:04:37;;;;;;;80.60;39.38;;;0.40;99.90;;;;;;2055182;28;20034;-66
2021/11/25 04:05:38;;;;;;;75.28;39.38;;;0.50;99.90;;;;;;2055362;28;20066;-67
2021/11/25 04:06:39;;;;;;;75.63;40.17;;;0.50;99.90;;;;;;2055488;28;20156;-67
2021/11/25 04:07:40;;;;;;;75.60;39.95;;;0.60;99.90;;;;;;2048210;28;20023;-66
2021/11/25 04:08:41;;;;;;;76.13;40.03;;;0.60;99.90;;;;;;2047529;28;20031;-66
2021/11/25 04:09:42;;;;;;;75.90;41.15;;;0.60;99.90;;;;;;2047636;29;20801;-66
2021/11/25 04:10:43;;;;;;;72.22;38.70;;;0.60;99.90;;;;;;2055045;28;20027;-68
2021/11/25 04:11:44;;;;;;;75.38;40.55;;;0.60;99.90;;;;;;2047045;28;20411;-66
2021/11/25 04:12:45;;;;;;;73.60;39.40;;;0.60;99.90;;;;;;2023879;29;20422;-66
2021/11/25 04:13:45;;;;;;;72.85;39.13;;;0.60;99.90;;;;;;2031840;29;20058;-66
2021/11/25 04:14:46;;;;;;;69.85;38.80;;;0.60;99.90;;;;;;2047298;29;20031;-67
2021/11/25 04:15:47;;;;;;;72.50;38.92;;;0.60;99.90;;;;;;2048060;28;20106;-66
2021/11/25 04:16:48;;;;;;;72.50;39.45;;;0.70;99.90;;;;;;2055604;28;20023;-67
2021/11/25 04:17:49;;;;;;;72.32;38.75;;;0.60;99.90;;;;;;2055389;28;20122;-67
2021/11/25 04:18:50;;;;;;;74.35;38.50;;;0.60;99.90;;;;;;2047528;28;20047;-66
2021/11/25 04:19:51;;;;;;;73.53;39.95;;;0.60;99.90;;;;;;2039565;29;20103;-67
2021/11/25 04:20:52;;;;;;;75.80;39.67;;;0.60;99.90;;;;;;2047181;28;20027;-68
2021/11/25 04:21:54;;;;;;;73.25;39.47;;;0.60;99.90;;;;;;2047716;28;20094;-67
2021/11/25 04:22:55;;;;;;;73.97;39.38;;;0.60;99.90;;;;;;2047339;28;20039;-68
2021/11/25 04:23:56;;;;;;;71.18;39.03;;;0.60;99.90;;;;;;2047591;29;20050;-67
2021/11/25 04:24:57;;;;;;;72.40;39.53;;;0.50;99.90;;;;;;2047474;28;20031;-67
2021/11/25 04:25:58;;;;;;;73.30;39.65;;;0.60;99.90;;;;;;2047792;29;20463;-66
2021/11/25 04:26:59;;;;;;;74.45;39.90;;;0.50;99.90;;;;;;2055589;28;20038;-67
2021/11/25 04:28:01;;;;;;;74.53;39.60;;;0.50;99.90;;;;;;2047743;28;20579;-67
2021/11/25 04:29:02;;;;;;;72.68;39.95;;;0.50;99.90;;;;;;2047612;28;20368;-67
2021/11/25 04:30:23;;;;;;;72.07;39.33;;;0.40;99.90;;;;;;2048210;28;20059;-67
2021/11/25 04:35:34;;;;;;;75.90;38.20;;;0.40;99.90;;;;;;2047873;28;20395;-67
2021/11/25 04:36:35;;;;;;;75.07;39.15;;;0.40;99.90;;;;;;2048045;28;20023;-67
2021/11/25 04:37:36;;;;;;;73.18;38.97;;;0.40;99.90;;;;;;2048176;28;20107;-67
2021/11/25 04:38:37;;;;;;;70.25;38.13;;;0.40;99.90;;;;;;2048108;28;20019;-66
2021/11/25 04:39:38;;;;;;;68.63;37.72;;;0.40;99.90;;;;;;2048122;28;20019;-67
2021/11/25 04:40:50;;;;;;;75.43;39.22;;;0.50;99.90;;;;;;2047124;29;20035;-66
2021/11/25 04:41:50;;;;;;;72.53;38.95;;;0.50;99.90;;;;;;2040616;29;20127;-66
2021/11/25 04:42:51;;;;;;;71.63;38.88;;;0.50;99.90;;;;;;2039358;29;20027;-67
2021/11/25 04:43:52;;;;;;;73.13;38.75;;;0.50;99.90;;;;;;2039567;29;20391;-66
2021/11/25 04:44:53;;;;;;;68.75;37.92;;;0.50;99.90;;;;;;2047241;28;20134;-66
2021/11/25 04:45:55;;;;;;;67.90;36.78;;;0.50;99.90;;;;;;2039452;29;20040;-66
2021/11/25 04:46:55;;;;;;;67.28;36.13;;;0.50;99.90;;;;;;2039864;29;20119;-65
2021/11/25 04:47:56;;;;;;;68.53;37.28;;;0.60;99.90;;;;;;2048118;28;20035;-66
2021/11/25 04:48:57;;;;;;;68.60;36.97;;;0.60;99.90;;;;;;2048098;28;20075;-66
2021/11/25 04:49:58;;;;;;;67.20;36.67;;;0.60;99.90;;;;;;2048347;28;20116;-66
2021/11/25 04:50:58;;;;;;;68.85;36.22;;;0.60;99.90;;;;;;2047780;28;20054;-66
2021/11/25 04:51:59;;;;;;;70.28;37.42;;;0.60;99.90;;;;;;2046875;29;20019;-65
2021/11/25 04:53:00;;;;;;;70.18;38.55;;;0.60;99.90;;;;;;2039663;29;20036;-65
2021/11/25 04:54:01;;;;;;;67.88;37.72;;;0.60;99.90;;;;;;2039860;29;20117;-66
2021/11/25 04:55:02;;;;;;;70.55;38.10;;;0.60;99.90;;;;;;2047994;28;20180;-66
2021/11/25 04:56:04;;;;;;;70.82;37.88;;;0.60;99.90;;;;;;2048918;28;20107;-66
2021/11/25 04:57:05;;;;;;;74.25;38.97;;;0.60;99.90;;;;;;2049386;28;20043;-67
2021/11/25 04:58:06;;;;;;;71.50;38.85;;;0.60;99.90;;;;;;2056375;28;20027;-67
2021/11/25 04:59:07;;;;;;;70.82;37.85;;;0.60;99.90;;;;;;2056040;28;20030;-65
2021/11/25 05:00:09;;;;;;;74.93;39.88;;;0.50;99.90;;;;;;2056088;28;20037;-65
2021/11/25 05:01:10;;;;;;;68.53;36.97;;;0.50;99.90;;;;;;2039190;29;20442;-65
2021/11/25 05:02:11;;;;;;;68.55;36.97;;;0.50;99.90;;;;;;2039707;29;20066;-66
2021/11/25 05:03:12;;;;;;;71.75;37.67;;;0.50;99.90;;;;;;2047256;28;20102;-66
2021/11/25 05:04:13;;;;;;;69.57;37.80;;;0.50;99.90;;;;;;2047660;28;20466;-66
2021/11/25 05:05:15;;;;;;;67.63;37.50;;;0.50;99.90;;;;;;2039212;28;20050;-66
2021/11/25 05:06:16;;;;;;;67.15;37.13;;;0.50;99.90;;;;;;2031551;29;20861;-66
2021/11/25 05:07:16;;;;;;;69.85;37.20;;;0.60;99.90;;;;;;2047321;29;20035;-66
2021/11/25 05:08:17;;;;;;;71.70;37.83;;;0.60;99.90;;;;;;2047373;29;20028;-66
2021/11/25 05:09:18;;;;;;;68.88;37.35;;;0.60;99.90;;;;;;2047364;29;20043;-65
2021/11/25 05:10:21;;;;;;;67.50;36.53;;;0.60;99.90;;;;;;2047644;28;20398;-65
2021/11/25 05:11:22;;;;;;;67.82;36.78;;;0.60;99.90;;;;;;2047481;28;20035;-65
2021/11/25 05:12:23;;;;;;;66.30;36.95;;;0.70;99.90;;;;;;2047847;28;20205;-65
2021/11/25 05:13:24;;;;;;;68.22;37.78;;;0.70;99.90;;;;;;2049188;28;20031;-65
2021/11/25 05:14:24;;;;;;;68.13;37.25;;;0.70;99.90;;;;;;2049356;28;20558;-66
2021/11/25 05:15:25;;;;;;;64.95;37.22;;;0.80;99.90;;;;;;2049312;28;20031;-66
2021/11/25 05:16:26;;;;;;;68.38;37.08;;;0.80;99.90;;;;;;2049374;28;20391;-67
2021/11/25 05:17:27;;;;;;;66.88;37.38;;;0.80;99.90;;;;;;2048626;29;20042;-67
2021/11/25 05:18:28;;;;;;;66.53;36.95;;;0.90;99.90;;;;;;2049000;29;20035;-66
2021/11/25 05:19:31;;;;;;;66.63;37.47;;;0.90;99.90;;;;;;2049413;28;20027;-67
2021/11/25 05:20:32;;;;;;;67.78;36.83;;;0.90;99.90;;;;;;2048975;28;20033;-67
2021/11/25 05:21:33;;;;;;;65.38;37.00;;;0.90;99.90;;;;;;2048900;28;20675;-67
2021/11/25 05:22:34;;;;;;;70.38;37.65;;;1.00;99.90;;;;;;2056646;28;20058;-67
2021/11/25 05:23:34;;;;;;;67.38;37.28;;;0.90;99.90;;;;;;2056657;28;20570;-67
2021/11/25 05:24:35;;;;;;;72.47;39.35;;;1.00;99.90;;;;;;2049291;28;20074;-67
2021/11/25 05:25:36;;;;;;;71.28;39.17;;;1.00;99.90;;;;;;2056737;28;20117;-66
2021/11/25 05:26:37;;;;;;;73.10;39.13;;;1.00;99.90;;;;;;2040771;29;20058;-66
2021/11/25 05:27:37;;;;;;;77.28;40.85;;;1.00;99.90;;;;;;2040820;29;20028;-66
2021/11/25 05:28:38;;;;;;;78.25;41.47;;;1.10;99.90;;;;;;2048749;29;20496;-67
2021/11/25 05:29:39;;;;;;;85.05;41.92;;;1.10;99.90;;;;;;2048704;29;20074;-66
2021/11/25 05:30:40;;;;;;;82.63;42.83;;;1.10;99.90;;;;;;2048915;28;20023;-68
2021/11/25 05:31:41;;;;;;;88.03;42.65;;;1.10;99.90;;;;;;2048750;28;20028;-66
2021/11/25 05:32:45;;;;;;;94.32;45.45;;;1.10;99.90;;;;;;2048575;29;20525;-66
2021/11/25 05:33:46;;;;;;;92.47;43.95;;;1.10;99.90;;;;;;2048466;28;20120;-67
2021/11/25 05:34:47;;;;;;;81.53;42.30;;;1.10;99.90;;;;;;2048543;29;20151;-67
2021/11/25 05:35:47;;;;;;;74.15;39.53;;;1.10;99.90;;;;;;2049171;28;20031;-66
2021/11/25 05:36:48;;;;;;;72.75;39.13;;;1.20;99.90;;;;;;2049096;28;20049;-66
2021/11/25 05:37:49;;;;;;;70.22;38.55;;;1.20;99.90;;;;;;2049046;28;20023;-67
2021/11/25 05:38:50;;;;;;;71.65;39.33;;;1.20;99.90;;;;;;2049477;28;20039;-67
2021/11/25 05:39:51;;;;;;;70.57;39.20;;;1.30;99.90;;;;;;2049296;28;20031;-68
2021/11/25 05:40:52;;;;;;;66.63;38.10;;;1.30;99.90;;;;;;2056370;28;20050;-66
2021/11/25 05:41:56;;;;;;;65.93;38.15;;;1.30;99.90;;;;;;2047931;28;20050;-68
2021/11/25 05:42:57;;;;;;;67.28;37.47;;;1.30;99.90;;;;;;2041062;29;20036;-68
2021/11/25 05:43:58;;;;;;;68.93;38.17;;;1.30;99.90;;;;;;2048733;29;20113;-67
2021/11/25 05:44:59;;;;;;;71.72;39.13;;;1.30;99.90;;;;;;2040538;29;20036;-67
2021/11/25 05:46:00;;;;;;;71.18;38.30;;;1.40;99.90;;;;;;2040726;29;20032;-68
2021/11/25 05:47:03;;;;;;;71.60;38.50;;;1.40;99.90;;;;;;2049096;28;20035;-66
2021/11/25 05:48:20;;;;;;;66.30;37.28;;;1.40;99.90;;;;;;2049320;28;20029;-67
2021/11/25 05:49:20;;;;;;;67.93;37.85;;;1.40;99.90;;;;;;2057032;28;20027;-66
2021/11/25 05:50:23;;;;;;;68.75;37.70;;;1.40;99.90;;;;;;2056604;28;20023;-67
2021/11/25 05:51:24;;;;;;;66.18;35.88;;;1.50;99.90;;;;;;2048371;28;20031;-68
2021/11/25 05:52:28;;;;;;;63.55;36.25;;;1.50;99.90;;;;;;2048739;29;20058;-67
2021/11/25 05:53:32;;;;;;;67.32;36.95;;;1.50;99.90;;;;;;2049235;28;20093;-68
2021/11/25 05:54:33;;;;;;;66.55;36.17;;;1.50;99.90;;;;;;2048559;29;20449;-67